Flight Track Log - Related Links

Times and Time Zones

All times are in EDT time to prevent confusion due to time zone crossing. See the UAL33 flight status page for this flight to view local times or setup timezone preferences in your user account.


Time Position Orientation Groundspeed Altitude Reporting Facility
EDT Latitude Longitude Course Direction KTS MPH feet Rate Location/Type
Tue 04:53:03 AM 35.6952 140.4251 150° Southeast 191 220 3,100  Level FlightAware ADS-B (LKPL)
Tue 04:54:04 AM 35.6387 140.4656 149° Southeast 260 299 4,500 1,671 Climbing FlightAware ADS-B (LKPL)
Tue 04:54:22 AM 35.6188 140.4800 150° Southeast 280 322 5,300 2,526 Climbing FlightAware ADS-B (LKPL)
Tue 04:54:42 AM 35.5957 140.4965 149° Southeast 283 326 6,100 2,634 Climbing FlightAware ADS-B (LKPL)
Tue 04:55:03 AM 35.5712 140.5144 148° Southeast 290 334 7,100 2,093 Climbing FlightAware ADS-B (LKPL)
Tue 04:55:25 AM 35.5576 140.5254 143° Southeast 298 343 7,600 2,462 Climbing FlightAware ADS-B
Tue 04:55:42 AM 35.5405 140.5642 94° East 305 351 8,700 3,000 Climbing FlightAware ADS-B (LKPL)
Tue 04:56:23 AM 35.5356 140.6372 94° East 315 362 10,500 1,926 Climbing FlightAware ADS-B (LKPL)
Tue 04:57:03 AM 35.5289 140.7133 96° East 361 415 11,300 1,899 Climbing FlightAware ADS-B (LKPL)
Tue 04:57:42 AM 35.5226 140.7961 96° East 380 437 13,000 2,519 Climbing FlightAware ADS-B (LKPL)
Tue 04:58:24 AM 35.5149 140.8863 95° East 396 456 14,700 1,704 Climbing FlightAware ADS-B (LKPL)
Tue 04:59:03 AM 35.5078 140.9749 95° East 408 470 15,300 1,899 Climbing FlightAware ADS-B (LKPL)
Tue 04:59:43 AM 35.5000 141.0694 95° East 414 476 17,200 2,550 Climbing FlightAware ADS-B (LKPL)
Tue 05:00:23 AM 35.4924 141.1621 95° East 428 493 18,700 2,250 Climbing FlightAware ADS-B (LKPL)
Tue 05:01:03 AM 35.4841 141.2615 95° East 441 507 20,200 2,074 Climbing FlightAware ADS-B (LKPL)
Tue 05:01:44 AM 35.4753 141.3639 96° East 455 524 21,500 1,975 Climbing FlightAware ADS-B (LKPL)
Tue 05:02:22 AM 35.4667 141.4648 96° East 466 536 22,800 1,818 Climbing FlightAware ADS-B (LKPL)
Tue 05:03:23 AM 35.4524 141.6273 96° East 487 560 24,500 1,688 Climbing FlightAware ADS-B (LKPL)
Tue 05:03:58 AM 35.4439 141.7245 96° East 498 573 25,500 1,319 Climbing FlightAware ADS-B (LKPL)
Tue 05:04:54 AM 35.4297 141.8826 95° East 522 601 26,500 1,398 Climbing FlightAware ADS-B (LKPL)
Tue 05:05:41 AM 35.4169 142.0234 95° East 527 606 27,900 1,571 Climbing FlightAware ADS-B (LKPL)
Tue 05:06:18 AM 35.4069 142.1326 96° East 540 621 28,700 1,113 Climbing FlightAware ADS-B (LKPL)
Tue 05:07:18 AM 35.3893 142.3206 97° East 560 644 29,700 941 Climbing FlightAware ADS-B (LKPL)
Tue 05:08:00 AM 35.3764 142.4569 97° East 581 669 30,300 913 Climbing FlightAware ADS-B (LKPL)
Tue 05:09:36 AM 35.3459 142.7731 96° East 606 697 31,800 73 Climbing FlightAware ADS-B (LKPL)
Tue 05:10:00 AM 35.5400 142.7674 57° Northeast  Level Estimated
Tue 05:12:00 AM 35.5413 143.1463 57° Northeast  Level Estimated
Tue 05:13:00 AM 35.6223 143.3024 57° Northeast  Level Estimated
Tue 05:14:00 AM 35.7032 143.4587 57° Northeast  Level Estimated
Tue 05:15:00 AM 35.7839 143.6154 58° Northeast  Level Estimated
Tue 05:16:00 AM 35.8644 143.7724 58° Northeast  Level Estimated
Tue 05:17:00 AM 35.9446 143.9297 58° Northeast  Level Estimated
Tue 05:18:00 AM 36.0247 144.0874 58° Northeast  Level Estimated
Tue 05:19:00 AM 36.1046 144.2453 58° Northeast  Level Estimated
Tue 05:20:00 AM 36.1841 144.4034 58° Northeast  Level Estimated
Tue 05:21:00 AM 36.2634 144.5617 58° Northeast  Level Estimated
Tue 05:22:00 AM 36.3424 144.7203 58° Northeast  Level Estimated
Tue 05:23:00 AM 36.4213 144.8793 58° Northeast  Level Estimated
Tue 05:24:00 AM 36.4999 145.0382 58° Northeast  Level Estimated
Tue 05:25:00 AM 36.5782 145.1976 58° Northeast  Level Estimated
Tue 05:26:00 AM 36.6562 145.3572 59° Northeast  Level Estimated
Tue 05:27:00 AM 36.7341 145.5171 59° Northeast  Level Estimated
Tue 05:28:00 AM 36.8118 145.6774 59° Northeast  Level Estimated
Tue 05:29:00 AM 36.8893 145.8380 59° Northeast  Level Estimated
Tue 05:30:00 AM 36.9665 145.9990 59° Northeast  Level Estimated
Tue 05:31:00 AM 37.0435 146.1602 59° Northeast  Level Estimated
Tue 05:32:00 AM 37.1203 146.3218 59° Northeast  Level Estimated
Tue 05:33:00 AM 37.1969 146.4837 59° Northeast  Level Estimated
Tue 05:34:00 AM 37.2732 146.6460 59° Northeast  Level Estimated
Tue 05:35:00 AM 37.3494 146.8085 59° Northeast  Level Estimated
Tue 05:36:00 AM 37.4253 146.9714 60° Northeast  Level Estimated
Tue 05:37:00 AM 37.5010 147.1346 60° Northeast  Level Estimated
Tue 05:38:00 AM 37.5765 147.2982 60° Northeast  Level Estimated
Tue 05:39:00 AM 37.6517 147.4621 60° Northeast  Level Estimated
Tue 05:40:00 AM 37.7267 147.6263 60° Northeast  Level Estimated
Tue 05:41:00 AM 37.8015 147.7909 60° Northeast  Level Estimated
Tue 05:42:00 AM 37.8760 147.9558 60° Northeast  Level Estimated
Tue 05:43:00 AM 37.9504 148.1210 60° Northeast  Level Estimated
Tue 05:44:00 AM 38.0244 148.2865 60° Northeast  Level Estimated
Tue 05:45:00 AM 38.0983 148.4524 60° Northeast  Level Estimated
Tue 05:46:00 AM 38.1721 148.6190 61° Northeast  Level Estimated
Tue 05:47:00 AM 38.2456 148.7858 61° Northeast  Level Estimated
Tue 05:48:00 AM 38.3189 148.9531 61° Northeast  Level Estimated
Tue 05:49:00 AM 38.3919 149.1206 61° Northeast  Level Estimated
Tue 05:50:00 AM 38.4647 149.2885 61° Northeast  Level Estimated
Tue 05:51:00 AM 38.5373 149.4567 61° Northeast  Level Estimated
Tue 05:52:00 AM 38.6096 149.6253 61° Northeast  Level Estimated
Tue 05:53:00 AM 38.6817 149.7942 61° Northeast  Level Estimated
Tue 05:54:00 AM 38.7536 149.9634 61° Northeast  Level Estimated
Tue 05:55:00 AM 38.8252 150.1330 62° Northeast  Level Estimated
Tue 05:56:00 AM 38.8965 150.3029 62° Northeast  Level Estimated
Tue 05:57:00 AM 38.9677 150.4732 62° Northeast  Level Estimated
Tue 05:58:00 AM 39.0385 150.6438 62° Northeast  Level Estimated
Tue 05:59:00 AM 39.1091 150.8147 62° Northeast  Level Estimated
Tue 06:00:00 AM 39.1795 150.9860 62° Northeast  Level Estimated
Tue 06:01:00 AM 39.2496 151.1577 62° Northeast  Level Estimated
Tue 06:02:00 AM 39.3195 151.3296 62° Northeast  Level Estimated
Tue 06:03:00 AM 39.3890 151.5020 62° Northeast  Level Estimated
Tue 06:04:00 AM 39.4584 151.6746 62° Northeast  Level Estimated
Tue 06:05:00 AM 39.5275 151.8476 63° Northeast  Level Estimated
Tue 06:06:00 AM 39.5963 152.0210 63° Northeast  Level Estimated
Tue 06:07:00 AM 39.6649 152.1947 63° Northeast  Level Estimated
Tue 06:08:00 AM 39.7332 152.3687 63° Northeast  Level Estimated
Tue 06:09:00 AM 39.8013 152.5431 63° Northeast  Level Estimated
Tue 06:10:00 AM 39.8691 152.7178 63° Northeast  Level Estimated
Tue 06:11:00 AM 39.9366 152.8929 63° Northeast  Level Estimated
Tue 06:12:00 AM 40.0039 153.0683 63° Northeast  Level Estimated
Tue 06:13:00 AM 40.0709 153.2441 63° Northeast  Level Estimated
Tue 06:14:00 AM 40.1376 153.4202 64° Northeast  Level Estimated
Tue 06:15:00 AM 40.2041 153.5966 64° Northeast  Level Estimated
Tue 06:16:00 AM 40.2703 153.7734 64° Northeast  Level Estimated
Tue 06:17:00 AM 40.3362 153.9506 64° Northeast  Level Estimated
Tue 06:18:00 AM 40.4019 154.1281 64° Northeast  Level Estimated
Tue 06:19:00 AM 40.4673 154.3059 64° Northeast  Level Estimated
Tue 06:20:00 AM 40.5324 154.4841 64° Northeast  Level Estimated
Tue 06:21:00 AM 40.5973 154.6626 64° Northeast  Level Estimated
Tue 06:22:00 AM 40.6618 154.8415 65° Northeast  Level Estimated
Tue 06:23:00 AM 40.7261 155.0207 65° Northeast  Level Estimated
Tue 06:24:00 AM 40.7901 155.2003 65° Northeast  Level Estimated
Tue 06:25:00 AM 40.8539 155.3802 65° Northeast  Level Estimated
Tue 06:26:00 AM 40.9173 155.5605 65° Northeast  Level Estimated
Tue 06:27:00 AM 40.9805 155.7410 65° Northeast  Level Estimated
Tue 06:28:00 AM 41.0434 155.9220 65° Northeast  Level Estimated
Tue 06:29:00 AM 41.1060 156.1033 65° Northeast  Level Estimated
Tue 06:30:00 AM 41.1683 156.2849 65° Northeast  Level Estimated
Tue 06:31:00 AM 41.2304 156.4669 66° East  Level Estimated
Tue 06:32:00 AM 41.2921 156.6492 66° East  Level Estimated
Tue 06:33:00 AM 41.3536 156.8319 66° East  Level Estimated
Tue 06:34:00 AM 41.4147 157.0150 66° East  Level Estimated
Tue 06:35:00 AM 41.4756 157.1983 66° East  Level Estimated
Tue 06:36:00 AM 41.5362 157.3820 66° East  Level Estimated
Tue 06:37:00 AM 41.5965 157.5661 66° East  Level Estimated
Tue 06:38:00 AM 41.6565 157.7505 66° East  Level Estimated
Tue 06:39:00 AM 41.7162 157.9352 67° East  Level Estimated
Tue 06:40:00 AM 41.7756 158.1203 67° East  Level Estimated
Tue 06:41:00 AM 41.8348 158.3057 67° East  Level Estimated
Tue 06:42:00 AM 41.8936 158.4915 67° East  Level Estimated
Tue 06:43:00 AM 41.9521 158.6776 67° East  Level Estimated
Tue 06:44:00 AM 42.0103 158.8640 67° East  Level Estimated
Tue 06:45:00 AM 42.0682 159.0508 67° East  Level Estimated
Tue 06:46:00 AM 42.1258 159.2379 67° East  Level Estimated
Tue 06:47:00 AM 42.1831 159.4254 68° East  Level Estimated
Tue 06:48:00 AM 42.2401 159.6132 68° East  Level Estimated
Tue 06:49:00 AM 42.2968 159.8014 68° East  Level Estimated
Tue 06:50:00 AM 42.3532 159.9899 68° East  Level Estimated
Tue 06:51:00 AM 42.4093 160.1787 68° East  Level Estimated
Tue 06:52:00 AM 42.4650 160.3678 68° East  Level Estimated
Tue 06:53:00 AM 42.5205 160.5573 68° East  Level Estimated
Tue 06:54:00 AM 42.5756 160.7471 68° East  Level Estimated
Tue 06:55:00 AM 42.6305 160.9373 69° East  Level Estimated
Tue 06:56:00 AM 42.6850 161.1278 69° East  Level Estimated
Tue 06:57:00 AM 42.7392 161.3186 69° East  Level Estimated
Tue 06:58:00 AM 42.7930 161.5098 69° East  Level Estimated
Tue 06:59:00 AM 42.8466 161.7013 69° East  Level Estimated
Tue 07:00:00 AM 42.8998 161.8931 69° East  Level Estimated
Tue 07:01:00 AM 42.9528 162.0853 69° East  Level Estimated
Tue 07:02:00 AM 43.0053 162.2778 69° East  Level Estimated
Tue 07:03:00 AM 43.0576 162.4706 70° East  Level Estimated
Tue 07:04:00 AM 43.1096 162.6638 70° East  Level Estimated
Tue 07:05:00 AM 43.1612 162.8572 70° East  Level Estimated
Tue 07:06:00 AM 43.2125 163.0510 70° East  Level Estimated
Tue 07:06:51 AM 37.8333 167.4833 84° East 608 700 39,000  Level Oakland Oceanic (ODAPS)
Tue 07:18:50 AM 38.0000 170.0000 72° East 601 692 39,000  Level Oakland Oceanic (ODAPS)
Tue 07:20:32 AM 38.1000 170.4000 73° East 596 686 39,000  Level Oakland Oceanic (ODAPS)
Tue 07:34:30 AM 38.7500 173.2167 74° East 594 684 39,000  Level Oakland Oceanic (ODAPS)
Tue 07:48:22 AM 39.3333 176.0667 76° East 587 676 39,000  Level Oakland Oceanic (ODAPS)
Tue 08:02:13 AM 39.8333 178.9333 78° East 597 687 39,000  Level Oakland Oceanic (ODAPS)
Tue 08:07:24 AM 40.0000 180.0000 65° Northeast 586 674 39,000  Level Oakland Oceanic (ODAPS)
Tue 08:16:03 AM 40.6000 -178.2833 66° East 586 674 39,000  Level Oakland Oceanic (ODAPS)
Tue 08:32:59 AM 41.5000 -175.4667 68° East 599 689 39,000  Level Oakland Oceanic (ODAPS)
Tue 08:33:40 AM 41.7000 -174.7833 68° East 602 693 39,000  Level Oakland Oceanic (ODAPS)
Tue 08:43:46 AM 42.3500 -172.5333 70° East 608 700 39,000  Level Oakland Oceanic (ODAPS)
Tue 08:55:44 AM 43.0000 -170.0000 79° East 561 646 39,000  Level Oakland Oceanic (ODAPS)
Tue 08:57:38 AM 43.0667 -169.5833 79° East 550 633 39,000  Level Oakland Oceanic (ODAPS)
Tue 09:11:36 AM 43.4333 -166.6500 81° East 548 631 39,000  Level Oakland Oceanic (ODAPS)
Tue 09:25:28 AM 43.7333 -163.7667 83° East 544 626 39,000  Level Oakland Oceanic (ODAPS)
Tue 09:39:17 AM 43.9500 -160.9167 85° East 519 597 39,000  Level Oakland Oceanic (ODAPS)
Tue 09:43:58 AM 44.0000 -160.0000 94° East 517 595 39,000 128 Level Oakland Oceanic (ODAPS)
Tue 09:53:22 AM 43.8833 -158.1500 96° East 507 583 40,800 54 Climbing Oakland Oceanic (ODAPS)
Tue 10:20:58 AM 43.3833 -152.8333 100° East 496 571 41,000 Climbing Oakland Oceanic (ODAPS)
Tue 10:34:49 AM 43.0333 -150.2667 100° East 486 559 41,000  Level Oakland Oceanic (ODAPS)
Tue 10:36:10 AM 43.0000 -150.0000 102° East 499 574 41,000  Level Oakland Oceanic (ODAPS)
Tue 10:48:37 AM 42.6333 -147.7167 103° East 504 580 41,000  Level Oakland Oceanic (ODAPS)
Tue 11:02:27 AM 42.1667 -145.1833 105° East 507 583 41,000  Level Oakland Oceanic (ODAPS)
Tue 11:16:17 AM 41.6333 -142.6833 107° East 506 582 41,000  Level Oakland Oceanic (ODAPS)
Tue 11:27:23 AM 41.1833 -140.7167 109° East 510 587 41,000  Level Oakland Oceanic (ODAPS)
Tue 11:30:12 AM 41.0500 -140.2167 107° East 506 582 41,000  Level Oakland Oceanic (ODAPS)
Tue 11:31:27 AM 41.0000 -140.0000 101° East 506 582 41,000  Level Oakland Oceanic (ODAPS)
Tue 11:32:00 AM 40.9725 -139.8198 101° East 506 582 41,000  Level FlightAware Transoceanic
Tue 11:32:15 AM 40.9833 -139.8667 101° East 505 581 41,000  Level Oakland Oceanic (ODAPS)
Tue 11:35:20 AM 40.8833 -139.3000 102° East 507 583 41,000  Level Oakland Oceanic (ODAPS)
Tue 11:44:07 AM 40.6167 -137.6833 103° East 507 583 41,000  Level Oakland Oceanic (ODAPS)
Tue 11:57:46 AM 40.1667 -135.2500 104° East 496 571 41,000  Level Oakland Oceanic (ODAPS)
Tue 12:09:40 PM 39.7500 -133.2333 106° East 497 572 41,000  Level Oakland Oceanic (ODAPS)
Tue 12:11:52 PM 39.6667 -132.8333 106° East 499 574 41,000  Level Oakland Oceanic (ODAPS)
Tue 12:25:44 PM 39.1167 -130.4500 108° East 502 578 41,000  Level Oakland Oceanic (ODAPS)
Tue 12:28:24 PM 39.0000 -130.0000 102° East 500 575 41,000  Level Oakland Oceanic (ODAPS)
Tue 12:39:27 PM 38.6667 -128.0667 103° East 506 582 41,000 -6 Level Oakland Oceanic (ODAPS)
Tue 12:45:10 PM 38.4664 -127.0892 112° Southeast 507 583 40,900  Descending Oakland Center
Tue 12:46:00 PM 38.4158 -126.8324 111° Southeast 506 582 41,000 98 Climbing FlightAware Transoceanic
Tue 12:46:11 PM 38.4161 -126.8856 107° East 507 583 41,000  Level Oakland Center
Tue 12:47:00 PM 38.3646 -126.6650 111° Southeast 506 582 41,000  Level FlightAware Transoceanic
Tue 12:47:13 PM 38.3592 -126.7228 114° Southeast 507 583 41,000  Level Oakland Center
Tue 12:48:00 PM 38.3132 -126.4979 111° Southeast 506 582 41,000  Level FlightAware Transoceanic
Tue 12:48:14 PM 38.3011 -126.5631 115° Southeast 503 579 41,000  Level Oakland Center
Tue 12:49:00 PM 38.2616 -126.3310 112° Southeast 506 582 41,000  Level FlightAware Transoceanic
Tue 12:49:15 PM 38.2431 -126.4019 115° Southeast 503 579 41,000  Level Oakland Center
Tue 12:50:00 PM 38.2098 -126.1643 112° Southeast 506 582 41,000 -97 Level FlightAware Transoceanic
Tue 12:50:17 PM 38.1842 -126.2425 115° Southeast 502 578 40,900 -77 Descending Oakland Center
Tue 12:51:18 PM 38.1250 -126.0822 115° Southeast 502 578 40,900 49 Level Oakland Center
Tue 12:52:19 PM 38.0661 -125.9219 115° Southeast 502 578 41,000 49 Climbing Oakland Center
Tue 12:53:21 PM 38.0072 -125.7608 115° Southeast 502 578 41,000  Level Oakland Center
Tue 12:55:23 PM 37.8753 -125.4078 117° Southeast 503 579 41,000 -33 Level Oakland Center
Tue 12:56:24 PM 37.8142 -125.2469 116° Southeast 504 580 40,900 -49 Descending Oakland Center
Tue 12:57:26 PM 37.7528 -125.0869 116° Southeast 506 582 40,900 17 Level Oakland Center
Tue 01:02:25 PM 37.4747 -124.3630 116° Southeast 510 587 41,000 17 Climbing FlightAware ADS-B (RZE / EPRZ)
Tue 01:03:10 PM 37.4046 -124.1834 116° Southeast 512 589 41,000  Level FlightAware ADS-B (RZE / EPRZ)
Tue 01:04:12 PM 37.3470 -124.0364 116° Southeast 510 587 41,000  Level FlightAware ADS-B (RZE / EPRZ)
Tue 01:04:49 PM 37.3134 -123.9510 116° Southeast 510 587 41,000  Level FlightAware ADS-B (RZE / EPRZ)
Tue 01:05:31 PM 37.2679 -123.8358 116° Southeast 511 588 41,000  Level FlightAware ADS-B (RZE / EPRZ)
Tue 01:06:17 PM 37.1967 -123.6560 117° Southeast 513 590 41,000  Level FlightAware ADS-B
Tue 01:06:31 PM 37.2094 -123.6881 116° Southeast 513 590 41,000  Level FlightAware ADS-B (RZE / EPRZ)
Tue 01:07:03 PM 37.1484 -123.5350 117° Southeast 513 590 41,000  Level FlightAware ADS-B
Tue 01:07:10 PM 37.1660 -123.5791 116° Southeast 513 590 41,000  Level FlightAware ADS-B (RZE / EPRZ)
Tue 01:07:34 PM 37.1153 -123.4520 116° Southeast 514 592 41,000  Level FlightAware ADS-B
Tue 01:07:50 PM 37.1119 -123.4436 116° Southeast 514 592 41,000  Level FlightAware ADS-B (RZE / EPRZ)
Tue 01:08:38 PM 37.0470 -123.2820 117° Southeast 513 590 41,000  Level FlightAware ADS-B
Tue 01:09:29 PM 37.0115 -123.1941 116° Southeast 514 592 41,000  Level FlightAware ADS-B (RZE / EPRZ)
Tue 01:09:46 PM 36.9788 -123.0990 107° East 520 598 41,000  Level FlightAware ADS-B
Tue 01:10:09 PM 36.9768 -123.0894 104° East 520 598 41,000  Level FlightAware ADS-B (RZE / EPRZ)
Tue 01:10:32 PM 36.9719 -122.9620 84° East 529 609 41,000  Level FlightAware ADS-B
Tue 01:10:49 PM 36.9727 -122.9533 83° East 529 609 41,000  Level FlightAware ADS-B (RZE / EPRZ)
Tue 01:11:08 PM 36.9823 -122.8530 83° East 530 610 41,000  Level FlightAware ADS-B
Tue 01:11:31 PM 36.9840 -122.8350 83° East 529 609 41,000  Level FlightAware ADS-B (RZE / EPRZ)
Tue 01:11:39 PM 36.9913 -122.7590 83° East 531 611 41,000  Level FlightAware ADS-B
Tue 01:12:09 PM 37.0000 -122.6670 83° East 531 611 41,000  Level FlightAware ADS-B
Tue 01:12:10 PM 36.9969 -122.7008 83° East 530 610 41,000  Level FlightAware ADS-B (RZE / EPRZ)
Tue 01:12:39 PM 37.0088 -122.5740 83° East 530 610 41,000  Level FlightAware ADS-B
Tue 01:13:10 PM 37.0175 -122.4810 83° East 531 611 41,000  Level FlightAware ADS-B
Tue 01:13:31 PM 37.0192 -122.4627 83° East 530 610 41,000  Level FlightAware ADS-B (RZE / EPRZ)
Tue 01:13:40 PM 37.0260 -122.3900 83° East 531 611 41,000  Level FlightAware ADS-B
Tue 01:14:10 PM 37.0346 -122.2970 83° East 532 612 41,000  Level FlightAware ADS-B
Tue 01:14:47 PM 37.0449 -122.1840 84° East 531 611 41,000  Level FlightAware ADS-B
Tue 01:15:01 PM 37.0466 -122.1655 84° East 531 611 41,000  Level FlightAware ADS-B
Tue 01:15:19 PM 37.0536 -122.0890 84° East 531 611 41,000  Level FlightAware ADS-B
Tue 01:15:49 PM 37.0620 -121.9970 84° East 531 611 41,000  Level FlightAware ADS-B
Tue 01:15:51 PM 37.0557 -122.0655 83° East 531 611 41,000  Level FlightAware ADS-B (RZE / EPRZ)
Tue 01:16:07 PM 37.0496 -122.1331 84° East 531 611 41,000  Level FlightAware ADS-B (RZE / EPRZ)
Tue 01:16:20 PM 37.0705 -121.9020 84° East 530 610 41,000  Level FlightAware ADS-B
Tue 01:16:42 PM 37.0705 -121.9023 83° East 531 611 41,000  Level FlightAware ADS-B (RZE / EPRZ)
Tue 01:16:56 PM 37.0805 -121.7920 84° East 530 610 41,000  Level FlightAware ADS-B
Tue 01:17:18 PM 37.0863 -121.7288 84° East 530 610 41,000  Level FlightAware ADS-B
Tue 01:17:27 PM 37.0889 -121.7000 84° East 530 610 41,000  Level FlightAware ADS-B
Tue 01:17:51 PM 37.0787 -121.8122 83° East 530 610 41,000  Level FlightAware ADS-B (RZE / EPRZ)
Tue 01:18:05 PM 37.0995 -121.5840 84° East 530 610 41,000  Level FlightAware ADS-B
Tue 01:18:24 PM 37.1045 -121.5250 86° East 530 610 41,000  Level FlightAware ADS-B
Tue 01:18:33 PM 37.1039 -121.4970 94° East 527 606 41,000  Level FlightAware ADS-B
Tue 01:18:40 PM 37.1012 -121.4770 101° East 524 603 41,000  Level FlightAware ADS-B
Tue 01:18:49 PM 37.0947 -121.4510 110° East 520 598 41,000  Level FlightAware ADS-B
Tue 01:18:52 PM 37.0919 -121.4430 113° Southeast 518 596 41,000  Level FlightAware ADS-B
Tue 01:19:00 PM 37.0830 -121.4230 121° Southeast 513 590 41,000  Level FlightAware ADS-B
Tue 01:19:07 PM 37.0911 -121.4408 116° Southeast 516 594 41,000  Level FlightAware ADS-B (RZE / EPRZ)
Tue 01:19:36 PM 37.0204 -121.3530 122° Southeast 513 590 41,000  Level FlightAware ADS-B
Tue 01:19:50 PM 37.0169 -121.3504 148° Southeast 492 566 41,000  Level FlightAware ADS-B (RZE / EPRZ)
Tue 01:20:30 PM 36.9430 -121.2901 144° Southeast 496 571 41,000  Level FlightAware ADS-B (RZE / EPRZ)
Tue 01:21:10 PM 36.8784 -121.2289 141° Southeast 500 575 41,000  Level FlightAware ADS-B (RZE / EPRZ)
Tue 01:21:51 PM 36.7922 -121.1416 140° Southeast 501 577 41,000  Level FlightAware ADS-B (RZE / EPRZ)
Tue 01:23:24 PM 36.6261 -120.9702 140° Southeast 501 577 41,000  Level FlightAware ADS-B (RZE / EPRZ)
Tue 01:23:56 PM 36.5490 -120.8910 140° Southeast 502 578 41,000  Level FlightAware ADS-B
Tue 01:24:46 PM 36.4818 -120.8217 140° Southeast 501 577 41,000  Level FlightAware ADS-B (RZE / EPRZ)
Tue 01:25:30 PM 36.4085 -120.7466 140° Southeast 502 578 41,000  Level FlightAware ADS-B (RZE / EPRZ)
Tue 01:26:02 PM 36.3238 -120.6600 140° Southeast 502 578 41,000  Level FlightAware ADS-B
Tue 01:26:11 PM 36.3435 -120.6802 140° Southeast 500 575 41,000  Level FlightAware ADS-B (RZE / EPRZ)
Tue 01:26:49 PM 36.2401 -120.5750 140° Southeast 499 574 41,000  Level FlightAware ADS-B
Tue 01:28:07 PM 36.1014 -120.4350 141° Southeast 499 574 41,000  Level FlightAware ADS-B
Tue 01:28:53 PM 36.0136 -120.3620 141° Southeast 499 574 41,000  Level FlightAware ADS-B
Tue 01:30:17 PM 35.8427 -120.2630 148° Southeast 492 566 41,000 -861 Level FlightAware ADS-B
Tue 01:36:12 PM 35.1846 -119.9150 165° South 442 509 34,700 -1,092 Descending FlightAware ADS-B
Tue 01:36:25 PM 35.1597 -119.9020 156° South 450 518 34,300 -1,922 Descending FlightAware ADS-B
Tue 01:40:53 PM 34.7789 -119.4341 133° Southeast 401 461 25,700 -1,952 Descending FlightAware ADS-B
Tue 01:41:57 PM 34.7014 -119.3317 133° Southeast 387 445 23,500 -2,019 Descending FlightAware ADS-B
Tue 01:42:37 PM 34.6533 -119.2686 133° Southeast 385 443 22,200 -1,143 Descending FlightAware ADS-B
Tue 01:43:21 PM 34.6038 -119.2034 133° Southeast 379 436 21,900 -1,185 Descending FlightAware ADS-B
Tue 01:43:58 PM 34.5547 -119.1391 133° Southeast 376 433 20,600 -2,222 Descending FlightAware ADS-B
Tue 01:45:09 PM 34.4742 -119.0342 133° Southeast 359 413 17,900 -2,056 Descending FlightAware ADS-B
Tue 01:46:21 PM 34.3942 -118.9298 133° Southeast 348 400 15,700 -1,646 Descending FlightAware ADS-B
Tue 01:47:02 PM 34.3538 -118.8845 150° Southeast 337 388 14,800 -1,279 Descending FlightAware ADS-B
Tue 01:47:22 PM 34.3176 -118.8655 173° South 329 379 14,400 -1,472 Descending FlightAware ADS-B
Tue 01:47:55 PM 34.2711 -118.8499 162° South 339 390 13,500 -1,525 Descending FlightAware ADS-B
Tue 01:48:21 PM 34.2258 -118.8331 163° South 338 389 12,900 -1,395 Descending FlightAware ADS-B
Tue 01:49:21 PM 34.1369 -118.8004 163° South 330 380 11,500 -1,286 Descending FlightAware ADS-B
Tue 01:49:31 PM 34.1238 -118.7957 163° South 325 374 11,400 -720 Descending FlightAware ADS-B
Tue 01:50:11 PM 34.0677 -118.7740 154° Southeast 307 353 10,900 -778 Descending FlightAware ADS-B
Tue 01:50:25 PM 34.0523 -118.7602 136° Southeast 306 352 10,700 -800 Descending FlightAware ADS-B
Tue 01:50:41 PM 34.0391 -118.7367 115° Southeast 303 349 10,500 -923 Descending FlightAware ADS-B
Tue 01:50:51 PM 34.0350 -118.7203 101° East 302 348 10,300 -1,091 Descending FlightAware ADS-B
Tue 01:50:52 PM 34.0356 -118.7236 101° East 302 348 10,300 -882 Level FlightAware ADS-B
Tue 01:51:25 PM 34.0297 -118.6648 96° East 296 341 9,800 -677 Descending FlightAware ADS-B
Tue 01:51:54 PM 34.0254 -118.6184 96° East 290 334 9,600 -585 Descending FlightAware ADS-B
Tue 01:52:06 PM 34.0239 -118.6017 96° East 289 333 9,400 -1,000 Descending FlightAware ADS-B
Tue 01:52:24 PM 34.0210 -118.5701 96° East 288 331 9,100 -1,029 Descending FlightAware ADS-B
Tue 01:52:41 PM 34.0188 -118.5465 96° East 280 322 8,800 -1,143 Descending FlightAware ADS-B
Tue 01:52:45 PM 34.0180 -118.5372 97° East 278 320 8,700 -1,200 Descending FlightAware ADS-B
Tue 01:53:01 PM 34.0158 -118.5146 96° East 268 308 8,400 -878 Descending FlightAware ADS-B
Tue 01:53:26 PM 34.0133 -118.4883 96° East 251 289 8,100 -764 Descending FlightAware ADS-B
Tue 01:53:56 PM 34.0122 -118.4379 85° East 239 275 7,700 -909 Descending FlightAware ADS-B
Tue 01:53:59 PM 34.0126 -118.4326 84° East 239 275 7,600 -1,600 Descending FlightAware ADS-B
Tue 01:54:11 PM 34.0144 -118.4170 82° East 239 275 7,300 -1,800 Descending FlightAware ADS-B
Tue 01:54:19 PM 34.0153 -118.4082 83° East 241 277 7,000 -2,000 Descending FlightAware ADS-B
Tue 01:54:26 PM 34.0165 -118.3963 83° East 240 276 6,800 -1,636 Descending FlightAware ADS-B
Tue 01:54:41 PM 34.0184 -118.3766 83° East 240 276 6,400 -1,500 Descending FlightAware ADS-B
Tue 01:54:54 PM 34.0199 -118.3623 83° East 238 274 6,100 -1,448 Descending FlightAware ADS-B
Tue 01:55:10 PM 34.0219 -118.3425 82° East 234 269 5,700 -1,615 Descending FlightAware ADS-B
Tue 01:55:20 PM 34.0225 -118.3369 83° East 231 266 5,400 -1,500 Descending FlightAware ADS-B
Tue 01:55:26 PM 34.0241 -118.3210 83° East 231 266 5,300 -750 Descending FlightAware ADS-B
Tue 01:55:36 PM 34.0250 -118.3123 83° East 231 266 5,200 -833 Descending FlightAware ADS-B
Tue 01:56:02 PM 34.0283 -118.2794 83° East 231 266 4,800 -480 Descending FlightAware ADS-B
Tue 01:56:26 PM 34.0316 -118.2464 83° East 222 255 4,800 -136 Level FlightAware ADS-B
Tue 01:56:46 PM 34.0343 -118.2179 83° East 212 244 4,700 -600 Descending FlightAware ADS-B
Tue 01:57:06 PM 34.0351 -118.1961 101° East 203 234 4,400 -720 Descending FlightAware ADS-B
Tue 01:57:11 PM 34.0335 -118.1899 112° Southeast 198 228 4,400 -600 Level FlightAware ADS-B
Tue 01:57:16 PM 34.0316 -118.1859 122° Southeast 196 226 4,300 -545 Descending FlightAware ADS-B
Tue 01:57:22 PM 34.0285 -118.1817 137° Southeast 192 221 4,300 -600 Level FlightAware ADS-B
Tue 01:57:26 PM 34.0248 -118.1784 147° Southeast 190 219 4,200 -1,500 Descending FlightAware ADS-B
Tue 01:57:30 PM 34.0234 -118.1776 159° South 189 217 4,100 -2,000 Descending FlightAware ADS-B
Tue 01:57:32 PM 34.0309 -118.1846 167° South 189 217 4,000 -1,000 Descending FlightAware ADS-B
Tue 01:57:54 PM 34.0008 -118.1739 192° South 188 216 3,700 -750 Descending FlightAware ADS-B
Tue 01:57:56 PM 33.9987 -118.1747 193° South 188 216 3,700 -706 Level FlightAware ADS-B
Tue 01:58:11 PM 33.9890 -118.1837 234° Southwest 188 216 3,500 -750 Descending FlightAware ADS-B
Tue 01:58:12 PM 33.9887 -118.1842 235° Southwest 188 216 3,500 -1,071 Level FlightAware ADS-B
Tue 01:58:39 PM 33.9774 -118.2104 244° Southwest 191 220 3,000 -1,091 Descending FlightAware ADS-B
Tue 01:58:56 PM 33.9709 -118.2266 248° West 192 221 2,700 -1,091 Descending FlightAware ADS-B
Tue 01:59:01 PM 33.9698 -118.2309 254° West 192 221 2,600 -1,000 Descending FlightAware ADS-B
Tue 01:59:14 PM 33.9680 -118.2441 264° West 195 224 2,400 -878 Descending FlightAware ADS-B
Tue 01:59:42 PM 33.9651 -118.2740 263° West 199 229 2,000 -960 Descending FlightAware ADS-B
Tue 02:00:04 PM 33.9625 -118.2995 263° West 197 227 1,600 -1,143 Descending FlightAware ADS-B
Tue 02:00:24 PM 33.9611 -118.3129 263° West 185 213 1,200 -900 Descending FlightAware ADS-B
Tue 02:00:44 PM 33.9586 -118.3385 263° West 165 190 1,000 -750 Descending FlightAware ADS-B
Tue 02:01:04 PM 33.9566 -118.3567 263° West 150 173 700 -811 Descending FlightAware ADS-B
Tue 02:01:21 PM 33.9552 -118.3706 264° West 149 171 500 -517 Descending FlightAware ADS-B
Tue 02:02:02 PM 33.9531 -118.4022 264° West 160 184 200 -439 Descending Los Angeles Center

Login

Don't have an account? Register now (free) for customized features, flight alerts, and more!